Time;durP1;ratioP1;P1;durP2;ratioP2;P2;SDS_P1;SDS_P2;PMS_P1;PMS_P2;Temp;Humidity;BMP_temperature;BMP_pressure;BME280_temperature;BME280_humidity;BME280_pressure;Samples;Min_cycle;Max_cycle;Signal;HPM_P1;HPM_P2
2022/10/06 00:01:28;;;;;;;1.20;1.20;;;19.60;71.30;;;;;;5089126;27;43952;-73
2022/10/06 00:03:57;;;;;;;1.30;1.30;;;19.60;71.40;;;;;;5087139;28;43846;-73
2022/10/06 00:06:25;;;;;;;1.30;1.30;;;19.60;72.00;;;;;;5088568;27;43497;-72
2022/10/06 00:08:53;;;;;;;1.10;1.10;;;19.60;71.90;;;;;;5087106;27;43634;-73
2022/10/06 00:11:21;;;;;;;1.27;1.27;;;19.70;71.40;;;;;;5087754;28;43748;-73
2022/10/06 00:13:49;;;;;;;1.20;1.20;;;19.80;71.10;;;;;;5087887;27;43610;-73
2022/10/06 00:16:20;;;;;;;1.10;1.10;;;19.80;71.00;;;;;;5088314;27;43370;-74
2022/10/06 00:18:48;;;;;;;1.20;1.20;;;19.80;71.00;;;;;;5088535;27;43833;-73
2022/10/06 00:21:17;;;;;;;1.27;1.27;;;19.80;71.30;;;;;;5088738;27;43511;-73
2022/10/06 00:23:45;;;;;;;1.17;1.17;;;19.80;71.20;;;;;;5087925;28;43926;-74
2022/10/06 00:26:15;;;;;;;1.13;1.13;;;19.80;70.90;;;;;;5088061;27;43489;-72
2022/10/06 00:28:44;;;;;;;1.30;1.30;;;19.70;71.00;;;;;;5088108;27;43766;-74
2022/10/06 00:31:12;;;;;;;1.20;1.20;;;19.70;71.10;;;;;;5088660;27;43411;-73
2022/10/06 00:33:40;;;;;;;1.10;1.10;;;19.70;71.70;;;;;;5088052;27;43852;-74
2022/10/06 00:36:08;;;;;;;1.30;1.30;;;19.70;71.70;;;;;;5087880;28;43466;-74
2022/10/06 00:38:37;;;;;;;1.30;1.30;;;19.70;71.40;;;;;;5081998;28;43457;-72
2022/10/06 00:41:10;;;;;;;1.20;1.20;;;19.70;71.40;;;;;;5121229;27;44274;-73
2022/10/06 00:43:47;;;;;;;1.20;1.20;;;19.60;71.40;;;;;;5087827;27;44570;-74
2022/10/06 00:46:28;;;;;;;1.30;1.30;;;19.60;72.00;;;;;;5083058;28;43489;-72
2022/10/06 00:48:59;;;;;;;1.20;1.20;;;19.60;71.90;;;;;;5086223;28;43466;-73
2022/10/06 00:51:27;;;;;;;1.20;1.20;;;19.80;71.60;;;;;;5088148;27;44062;-73
2022/10/06 00:53:56;;;;;;;1.10;1.10;;;19.90;71.00;;;;;;5086311;28;45994;-73
2022/10/06 00:56:25;;;;;;;1.20;1.20;;;20.00;70.40;;;;;;5085970;28;43491;-73
2022/10/06 00:58:53;;;;;;;1.33;1.33;;;20.00;71.00;;;;;;5087405;27;43431;-73
2022/10/06 01:01:21;;;;;;;1.10;1.10;;;20.00;70.20;;;;;;5086880;28;43458;-72
2022/10/06 01:03:52;;;;;;;1.20;1.20;;;20.00;70.40;;;;;;5087651;28;43685;-73
2022/10/06 01:06:20;;;;;;;1.23;1.23;;;19.90;70.50;;;;;;5085894;28;44270;-73
2022/10/06 01:08:49;;;;;;;1.20;1.20;;;19.80;71.00;;;;;;5087380;28;43642;-72
2022/10/06 01:11:18;;;;;;;1.00;1.00;;;19.80;71.20;;;;;;5087705;28;43455;-73
2022/10/06 01:13:46;;;;;;;1.10;1.10;;;19.80;71.20;;;;;;5083829;28;46299;-73
2022/10/06 01:16:17;;;;;;;1.30;1.30;;;19.70;71.00;;;;;;5085900;28;44583;-72
2022/10/06 01:18:46;;;;;;;1.20;1.20;;;19.70;71.10;;;;;;5087295;27;43359;-74
2022/10/06 01:21:18;;;;;;;1.20;1.20;;;19.70;72.00;;;;;;5086013;28;43430;-73
2022/10/06 01:23:48;;;;;;;1.27;1.27;;;19.70;72.00;;;;;;5085463;28;45663;-73
2022/10/06 01:26:16;;;;;;;1.40;1.40;;;19.70;71.70;;;;;;5085558;28;44427;-74
2022/10/06 01:28:44;;;;;;;1.30;1.30;;;19.60;71.50;;;;;;5080621;28;43336;-73
2022/10/06 01:31:12;;;;;;;1.20;1.20;;;19.60;71.40;;;;;;5082857;28;43499;-73
2022/10/06 01:33:42;;;;;;;1.17;1.17;;;19.60;71.50;;;;;;5084512;28;45451;-72
2022/10/06 01:36:12;;;;;;;1.30;1.30;;;19.60;72.10;;;;;;5080269;28;44374;-73
2022/10/06 01:38:40;;;;;;;1.30;1.30;;;19.60;71.90;;;;;;5085965;28;44070;-73
2022/10/06 01:41:09;;;;;;;1.20;1.20;;;19.70;71.40;;;;;;5086114;28;43501;-72
2022/10/06 01:43:37;;;;;;;1.30;1.30;;;19.80;70.90;;;;;;5086272;28;44044;-73
2022/10/06 01:46:06;;;;;;;1.20;1.20;;;19.90;70.90;;;;;;5085213;28;44677;-73
2022/10/06 01:48:35;;;;;;;1.23;1.23;;;19.90;70.70;;;;;;5085504;28;43396;-73
2022/10/06 01:51:03;;;;;;;1.00;1.00;;;19.80;71.00;;;;;;5087047;27;43664;-72
2022/10/06 01:53:31;;;;;;;1.23;1.23;;;19.80;71.10;;;;;;5085182;28;43926;-72
2022/10/06 01:55:59;;;;;;;1.37;1.37;;;19.80;71.00;;;;;;5083828;28;43395;-72
2022/10/06 01:58:30;;;;;;;1.17;1.17;;;19.80;70.90;;;;;;5085028;28;43543;-74
2022/10/06 02:01:03;;;;;;;1.10;1.10;;;19.80;70.90;;;;;;5085958;28;43545;-73
2022/10/06 02:03:33;;;;;;;1.20;1.20;;;19.70;71.30;;;;;;5084599;28;45374;-73
2022/10/06 02:06:01;;;;;;;1.60;1.50;;;19.70;71.70;;;;;;5086629;27;43879;-73
2022/10/06 02:08:30;;;;;;;1.20;1.20;;;19.70;71.50;;;;;;5084996;28;43471;-73
2022/10/06 02:11:05;;;;;;;1.10;1.10;;;19.70;71.40;;;;;;5085365;28;43465;-72
2022/10/06 02:13:35;;;;;;;1.20;1.20;;;19.70;71.40;;;;;;5083767;28;45522;-72
2022/10/06 02:16:05;;;;;;;1.10;1.10;;;19.60;71.40;;;;;;5084751;28;44805;-73
2022/10/06 02:18:33;;;;;;;1.20;1.20;;;19.60;72.00;;;;;;5085047;28;43444;-72
2022/10/06 02:21:02;;;;;;;1.13;1.13;;;19.70;71.80;;;;;;5119257;27;43649;-73
2022/10/06 02:23:30;;;;;;;1.10;1.10;;;19.80;71.40;;;;;;5084681;28;46245;-72
2022/10/06 02:25:59;;;;;;;1.10;1.10;;;19.90;70.90;;;;;;5086217;28;43405;-72
2022/10/06 02:28:27;;;;;;;0.93;0.93;;;19.90;70.90;;;;;;5084651;28;43357;-73
2022/10/06 02:31:02;;;;;;;1.20;1.20;;;19.90;70.90;;;;;;5085183;28;43701;-73
2022/10/06 02:33:30;;;;;;;1.00;1.00;;;19.90;71.00;;;;;;5084425;28;45564;-74
2022/10/06 02:35:58;;;;;;;1.00;1.00;;;19.90;70.90;;;;;;5084200;28;44671;-73
2022/10/06 02:38:28;;;;;;;1.10;1.10;;;19.80;70.80;;;;;;5085040;28;43526;-73
2022/10/06 02:40:56;;;;;;;1.40;1.40;;;19.80;70.80;;;;;;5086134;27;43551;-73
2022/10/06 02:43:27;;;;;;;1.13;1.13;;;19.80;71.00;;;;;;5084530;28;45747;-73
2022/10/06 02:45:56;;;;;;;1.00;1.00;;;19.70;71.50;;;;;;5084447;28;44087;-73
2022/10/06 02:48:26;;;;;;;1.10;1.10;;;19.70;71.50;;;;;;5084343;28;43872;-73
2022/10/06 02:50:55;;;;;;;1.20;1.20;;;19.70;71.20;;;;;;5086041;27;43916;-73
2022/10/06 02:53:24;;;;;;;1.00;1.00;;;19.70;71.40;;;;;;5082621;28;45748;-73
2022/10/06 02:55:58;;;;;;;1.27;1.27;;;19.70;71.40;;;;;;5079775;28;44758;-72
2022/10/06 02:58:26;;;;;;;1.20;1.20;;;19.60;71.90;;;;;;5079821;28;43505;-72
2022/10/06 03:00:54;;;;;;;1.10;1.10;;;19.70;71.90;;;;;;5085056;28;43430;-73
2022/10/06 03:03:22;;;;;;;1.10;1.10;;;19.80;71.60;;;;;;5084211;28;45984;-73
2022/10/06 03:05:59;;;;;;;1.00;1.00;;;19.90;71.00;;;;;;5084557;28;44839;-72
2022/10/06 03:08:27;;;;;;;1.00;1.00;;;19.90;70.80;;;;;;5084816;27;43358;-72
2022/10/06 03:11:00;;;;;;;1.00;1.00;;;19.90;70.70;;;;;;5119574;27;43468;-72
2022/10/06 03:13:29;;;;;;;1.10;1.10;;;19.90;71.10;;;;;;5087544;28;45998;-73
2022/10/06 03:15:57;;;;;;;1.10;1.10;;;19.90;71.00;;;;;;5087447;28;44648;-72
2022/10/06 03:18:25;;;;;;;1.10;1.10;;;19.90;71.00;;;;;;5087796;28;43449;-73
2022/10/06 03:20:59;;;;;;;1.00;1.00;;;19.80;70.80;;;;;;5087989;28;43423;-74
2022/10/06 03:23:28;;;;;;;1.20;1.20;;;19.80;71.00;;;;;;5087463;28;45350;-73
2022/10/06 03:25:56;;;;;;;1.10;1.10;;;19.70;71.40;;;;;;5087557;27;44600;-73
2022/10/06 03:28:24;;;;;;;1.20;1.20;;;19.70;71.60;;;;;;5087476;28;43972;-73
2022/10/06 03:30:53;;;;;;;1.00;1.00;;;19.70;71.40;;;;;;5087864;28;43391;-72
2022/10/06 03:33:21;;;;;;;1.10;1.10;;;19.70;71.40;;;;;;5087158;28;45915;-75
2022/10/06 03:35:59;;;;;;;1.13;1.13;;;19.70;71.40;;;;;;5086494;28;44512;-73
2022/10/06 03:38:27;;;;;;;1.07;1.07;;;19.60;71.60;;;;;;5087587;28;43452;-75
2022/10/06 03:41:02;;;;;;;1.00;1.00;;;19.60;72.10;;;;;;5087801;28;43468;-73
2022/10/06 03:43:30;;;;;;;0.90;0.90;;;19.60;71.90;;;;;;5088462;28;43959;-73
2022/10/06 03:45:59;;;;;;;1.10;1.10;;;19.60;71.60;;;;;;5087121;28;43497;-73
2022/10/06 03:48:28;;;;;;;1.20;1.20;;;19.60;71.60;;;;;;5086673;27;43425;-73
2022/10/06 03:50:59;;;;;;;1.10;1.10;;;19.60;71.70;;;;;;5087818;28;43912;-72
2022/10/06 03:53:28;;;;;;;1.70;1.30;;;19.60;72.20;;;;;;5085954;28;45585;-73
2022/10/06 03:56:00;;;;;;;2.77;1.50;;;19.70;72.10;;;;;;5087107;28;43465;-74
2022/10/06 03:58:31;;;;;;;1.70;1.60;;;19.80;71.60;;;;;;5086881;28;43448;-74
2022/10/06 04:01:01;;;;;;;2.80;2.07;;;19.90;71.00;;;;;;5087806;28;43445;-73
2022/10/06 04:03:29;;;;;;;1.60;1.50;;;20.10;70.50;;;;;;5086886;28;45604;-73
2022/10/06 04:05:59;;;;;;;1.60;1.50;;;20.10;70.30;;;;;;5087662;28;43479;-72
2022/10/06 04:08:28;;;;;;;1.70;1.60;;;20.10;70.40;;;;;;5087257;27;43467;-72
2022/10/06 04:11:03;;;;;;;1.60;1.50;;;20.00;70.30;;;;;;5087289;28;43454;-73
2022/10/06 04:13:32;;;;;;;2.37;1.90;;;20.00;70.60;;;;;;5086535;28;46129;-72
2022/10/06 04:16:11;;;;;;;2.27;2.03;;;19.90;71.20;;;;;;5087789;28;43343;-71
2022/10/06 04:18:39;;;;;;;2.10;2.00;;;19.80;71.20;;;;;;5087182;28;43415;-74
2022/10/06 04:21:09;;;;;;;2.23;2.13;;;19.80;71.10;;;;;;5086766;28;43427;-73
2022/10/06 04:23:37;;;;;;;1.80;1.70;;;19.80;71.10;;;;;;5086463;27;45763;-72
2022/10/06 04:26:08;;;;;;;1.93;1.83;;;19.70;71.20;;;;;;5086736;28;45644;-72
2022/10/06 04:28:36;;;;;;;2.30;2.10;;;19.70;71.70;;;;;;5086462;28;43931;-72
2022/10/06 04:31:12;;;;;;;2.23;2.10;;;19.70;71.80;;;;;;5088309;27;43464;-73
2022/10/06 04:33:40;;;;;;;2.00;1.90;;;19.70;71.60;;;;;;5086318;28;43974;-74
2022/10/06 04:36:11;;;;;;;2.10;1.97;;;19.70;71.50;;;;;;5086050;28;44491;-74
2022/10/06 04:38:39;;;;;;;1.90;1.80;;;19.70;71.50;;;;;;5080406;28;43441;-73
2022/10/06 04:41:08;;;;;;;2.67;2.47;;;19.60;71.80;;;;;;5084845;28;43961;-73
2022/10/06 04:43:36;;;;;;;2.10;2.00;;;19.70;72.20;;;;;;5082265;27;45382;-73
2022/10/06 04:46:04;;;;;;;3.10;2.23;;;19.70;71.80;;;;;;5112462;27;44345;-73
2022/10/06 04:48:53;;;;;;;2.77;2.30;;;19.80;71.30;;;;;;5117197;27;43469;-73
2022/10/06 04:51:26;;;;;;;2.30;2.10;;;19.90;71.10;;;;;;5086568;28;43476;-72
2022/10/06 04:53:56;;;;;;;3.40;2.53;;;19.90;70.80;;;;;;5087569;27;43610;-72
2022/10/06 04:56:26;;;;;;;4.03;2.63;;;19.90;71.20;;;;;;5085758;28;44476;-74
2022/10/06 04:58:54;;;;;;;2.00;1.90;;;19.90;71.10;;;;;;5086188;28;43448;-74
2022/10/06 05:01:23;;;;;;;2.47;1.90;;;19.90;71.10;;;;;;5088023;27;43978;-74
2022/10/06 05:03:53;;;;;;;2.10;2.00;;;19.90;70.90;;;;;;5079615;28;45472;-72
2022/10/06 05:06:22;;;;;;;2.37;2.17;;;19.80;71.00;;;;;;5087594;28;43457;-73
2022/10/06 05:08:52;;;;;;;2.20;2.10;;;19.80;71.20;;;;;;5085993;28;43429;-72
2022/10/06 05:11:20;;;;;;;2.30;2.20;;;19.80;71.70;;;;;;5086098;28;43940;-73
2022/10/06 05:13:55;;;;;;;2.20;2.10;;;19.80;71.60;;;;;;5085544;28;45635;-74
2022/10/06 05:16:25;;;;;;;2.10;2.00;;;19.80;72.10;;;;;;5086100;28;43327;-72
2022/10/06 05:18:53;;;;;;;2.50;2.30;;;19.80;71.40;;;;;;5085294;28;43471;-72
2022/10/06 05:21:22;;;;;;;2.27;2.07;;;19.70;71.40;;;;;;5087982;28;43787;-73
2022/10/06 05:23:52;;;;;;;2.03;1.93;;;19.70;72.00;;;;;;5085975;28;45187;-74
2022/10/06 05:26:21;;;;;;;2.20;2.10;;;19.70;71.90;;;;;;5079275;28;44334;-72
2022/10/06 05:28:49;;;;;;;2.47;1.87;;;19.80;71.40;;;;;;5085776;28;43376;-73
2022/10/06 05:31:18;;;;;;;1.80;1.70;;;19.90;71.10;;;;;;5086925;27;43414;-73
2022/10/06 05:33:46;;;;;;;2.37;2.17;;;20.00;71.10;;;;;;5085199;28;45471;-72
2022/10/06 05:36:15;;;;;;;1.93;1.83;;;19.90;70.90;;;;;;5084690;27;44698;-72
2022/10/06 05:38:43;;;;;;;2.20;2.10;;;19.90;71.20;;;;;;5085996;28;43390;-73
2022/10/06 05:41:14;;;;;;;2.00;1.90;;;19.90;71.00;;;;;;5084695;27;43521;-72
2022/10/06 05:43:42;;;;;;;2.70;2.50;;;19.90;70.90;;;;;;5085692;28;45344;-73
2022/10/06 05:46:16;;;;;;;2.00;1.90;;;19.90;71.00;;;;;;5087522;28;43385;-73
2022/10/06 05:48:46;;;;;;;2.10;2.00;;;19.80;71.10;;;;;;5085990;27;43556;-73
2022/10/06 05:51:15;;;;;;;2.10;1.97;;;19.80;71.70;;;;;;5085883;28;43627;-73
2022/10/06 05:53:43;;;;;;;2.13;2.03;;;19.80;71.60;;;;;;5085645;28;45921;-73
2022/10/06 05:56:13;;;;;;;2.07;1.97;;;19.80;71.50;;;;;;5085475;28;44702;-73
2022/10/06 05:58:42;;;;;;;2.00;1.90;;;19.70;71.30;;;;;;5085723;28;43501;-73
2022/10/06 06:01:11;;;;;;;2.07;1.90;;;19.70;71.40;;;;;;5085913;28;43695;-72
2022/10/06 06:03:40;;;;;;;2.00;1.90;;;19.70;71.90;;;;;;5082195;28;44087;-72
2022/10/06 06:06:15;;;;;;;1.83;1.73;;;19.70;72.00;;;;;;5085411;28;43590;-74
2022/10/06 06:08:43;;;;;;;2.23;1.87;;;19.80;71.60;;;;;;5085384;28;44136;-73
2022/10/06 06:11:13;;;;;;;2.00;1.90;;;19.90;71.20;;;;;;5085942;28;43673;-73
2022/10/06 06:13:41;;;;;;;1.90;1.80;;;20.00;71.10;;;;;;5085372;28;45821;-73
2022/10/06 06:16:13;;;;;;;2.00;1.90;;;19.90;70.90;;;;;;5085269;28;43457;-71
2022/10/06 06:18:42;;;;;;;1.83;1.73;;;19.90;71.20;;;;;;5085595;28;43409;-73
2022/10/06 06:21:13;;;;;;;1.80;1.70;;;19.90;71.00;;;;;;5085955;28;43399;-72
2022/10/06 06:23:45;;;;;;;2.00;1.90;;;19.90;71.00;;;;;;5085299;28;44036;-73
2022/10/06 06:26:16;;;;;;;1.70;1.70;;;19.90;70.90;;;;;;5084905;28;43384;-73
2022/10/06 06:28:49;;;;;;;1.87;1.77;;;19.80;71.10;;;;;;5083923;28;44418;-73
2022/10/06 06:31:20;;;;;;;2.03;1.90;;;19.80;71.70;;;;;;5119759;27;43434;-73
2022/10/06 06:33:51;;;;;;;2.10;1.63;;;19.80;71.70;;;;;;5084968;28;44062;-73
2022/10/06 06:36:20;;;;;;;1.57;1.57;;;19.80;71.50;;;;;;5083656;27;43519;-73
2022/10/06 06:38:50;;;;;;;1.80;1.70;;;19.70;71.40;;;;;;5085085;28;43510;-73
2022/10/06 06:41:21;;;;;;;1.97;1.87;;;19.70;71.40;;;;;;5085205;27;43632;-72
2022/10/06 06:43:51;;;;;;;2.00;1.90;;;19.70;71.90;;;;;;5087676;27;44150;-74
2022/10/06 06:46:30;;;;;;;1.67;1.63;;;19.70;72.10;;;;;;5088246;28;44990;-72
2022/10/06 06:49:04;;;;;;;1.67;1.67;;;19.80;71.70;;;;;;5090139;27;44016;-73
2022/10/06 06:51:37;;;;;;;1.90;1.80;;;20.00;71.30;;;;;;5088493;28;43588;-73
2022/10/06 06:54:05;;;;;;;1.97;1.83;;;20.10;70.70;;;;;;5088085;28;45627;-73
2022/10/06 06:56:37;;;;;;;1.73;1.63;;;20.20;70.50;;;;;;5088184;28;43377;-73
2022/10/06 06:59:09;;;;;;;1.93;1.83;;;20.10;70.30;;;;;;5087296;28;44032;-72
2022/10/06 07:01:44;;;;;;;1.90;1.73;;;20.10;70.30;;;;;;5088688;28;43525;-73
2022/10/06 07:04:13;;;;;;;1.70;1.60;;;20.00;70.50;;;;;;5088401;28;43929;-73
2022/10/06 07:06:55;;;;;;;1.70;1.60;;;19.90;71.00;;;;;;5088181;28;43389;-72
2022/10/06 07:09:25;;;;;;;1.60;1.60;;;19.90;71.20;;;;;;5086894;27;43984;-73
2022/10/06 07:11:59;;;;;;;1.50;1.50;;;19.90;71.10;;;;;;5086302;28;44005;-73
2022/10/06 07:14:28;;;;;;;1.60;1.60;;;19.80;71.10;;;;;;5087962;28;44083;-72
2022/10/06 07:25:26;;;;;;;1.40;1.30;;;19.80;71.50;;;;;;5089114;28;43824;-73
2022/10/06 07:27:58;;;;;;;1.70;1.60;;;19.70;71.40;;;;;;5085094;28;43903;-74
2022/10/06 07:30:31;;;;;;;1.80;1.70;;;19.70;71.50;;;;;;5084898;28;43423;-73
2022/10/06 07:33:13;;;;;;;1.40;1.40;;;19.70;72.00;;;;;;5087748;27;43584;-72
2022/10/06 07:35:43;;;;;;;1.70;1.60;;;19.70;72.10;;;;;;5087170;28;44045;-73
2022/10/06 07:38:13;;;;;;;1.57;1.57;;;19.80;71.70;;;;;;5084753;28;43561;-73
2022/10/06 07:40:53;;;;;;;1.30;1.30;;;19.90;71.20;;;;;;5087758;28;43445;-72
2022/10/06 07:43:43;;;;;;;1.40;1.40;;;20.00;71.10;;;;;;5088358;28;43618;-71
2022/10/06 07:46:12;;;;;;;1.50;1.50;;;20.00;70.90;;;;;;5087875;28;44108;-73
2022/10/06 07:48:47;;;;;;;1.50;1.50;;;19.90;71.20;;;;;;5087045;28;44599;-73
2022/10/06 07:51:18;;;;;;;1.30;1.30;;;19.90;71.20;;;;;;5087701;28;43912;-73
2022/10/06 07:53:49;;;;;;;1.70;1.70;;;19.90;71.00;;;;;;5087267;28;43848;-73
2022/10/06 07:56:46;;;;;;;1.67;1.63;;;19.90;71.00;;;;;;5050124;27;43655;-72
2022/10/06 07:59:15;;;;;;;1.67;1.57;;;19.80;71.10;;;;;;5083558;28;44022;-71
2022/10/06 08:01:45;;;;;;;1.60;1.60;;;19.80;71.70;;;;;;5088609;28;43449;-72
2022/10/06 08:04:13;;;;;;;1.77;1.67;;;19.80;71.70;;;;;;5089423;27;43426;-72
2022/10/06 08:06:41;;;;;;;1.70;1.70;;;19.80;71.50;;;;;;5087119;28;45342;-72
2022/10/06 08:09:09;;;;;;;1.30;1.30;;;19.80;71.50;;;;;;5088965;27;43469;-73
2022/10/06 08:11:37;;;;;;;1.70;1.60;;;19.70;71.50;;;;;;5088832;28;43386;-72
2022/10/06 08:14:05;;;;;;;2.03;1.93;;;19.70;71.80;;;;;;5088933;27;43464;-73
2022/10/06 08:16:34;;;;;;;1.40;1.40;;;19.70;72.10;;;;;;5086877;28;45668;-73
2022/10/06 08:19:03;;;;;;;1.93;1.83;;;19.80;71.80;;;;;;5088188;27;43881;-74
2022/10/06 08:21:33;;;;;;;1.47;1.47;;;19.90;71.40;;;;;;5083423;28;43396;-72
2022/10/06 08:24:01;;;;;;;1.60;1.50;;;20.10;70.90;;;;;;5088832;27;43917;-73
2022/10/06 08:26:30;;;;;;;1.73;1.63;;;20.20;70.50;;;;;;5088401;27;43601;-72
2022/10/06 08:28:58;;;;;;;1.57;1.57;;;20.20;70.50;;;;;;5086559;27;45064;-73
2022/10/06 08:31:26;;;;;;;1.40;1.40;;;20.10;70.40;;;;;;5086823;28;43441;-72
2022/10/06 08:33:56;;;;;;;1.20;1.20;;;20.00;70.50;;;;;;5087133;28;43558;-73
2022/10/06 08:36:25;;;;;;;1.60;1.50;;;20.00;70.80;;;;;;5087704;28;43927;-73
2022/10/06 08:38:58;;;;;;;1.40;1.40;;;19.90;72.00;;;;;;5088125;27;43494;-73
2022/10/06 08:41:27;;;;;;;1.90;1.57;;;19.90;71.30;;;;;;5087800;27;43416;-73
2022/10/06 08:43:58;;;;;;;1.40;1.40;;;19.80;71.10;;;;;;5088470;27;43433;-72
2022/10/06 08:46:30;;;;;;;1.50;1.50;;;19.80;71.20;;;;;;5088119;27;43859;-73
2022/10/06 08:49:00;;;;;;;1.30;1.30;;;19.80;71.30;;;;;;5087761;27;43385;-73
2022/10/06 08:51:36;;;;;;;1.50;1.50;;;19.70;71.80;;;;;;5087826;27;43436;-73
2022/10/06 08:54:07;;;;;;;1.43;1.43;;;19.80;71.90;;;;;;5088582;27;43437;-73
2022/10/06 08:56:36;;;;;;;1.33;1.33;;;19.80;71.70;;;;;;5086970;28;43905;-74
2022/10/06 08:59:04;;;;;;;1.40;1.30;;;19.70;71.50;;;;;;5087541;28;43415;-73
2022/10/06 09:01:37;;;;;;;1.57;1.47;;;19.70;71.60;;;;;;5086509;28;43413;-72
2022/10/06 09:04:07;;;;;;;1.50;1.50;;;19.70;72.00;;;;;;5088029;27;43450;-72
2022/10/06 09:06:41;;;;;;;1.37;1.37;;;19.70;72.10;;;;;;5080009;27;44013;-72
2022/10/06 09:09:17;;;;;;;1.70;1.60;;;19.80;71.70;;;;;;5087999;27;43469;-73
2022/10/06 09:11:50;;;;;;;1.43;1.33;;;20.00;71.40;;;;;;5087766;27;43465;-73
2022/10/06 09:14:20;;;;;;;1.53;1.53;;;20.10;70.80;;;;;;5086636;28;43822;-73
2022/10/06 09:16:51;;;;;;;1.23;1.23;;;20.20;70.60;;;;;;5086335;28;45571;-73
2022/10/06 09:19:22;;;;;;;1.33;1.33;;;20.10;70.40;;;;;;5087524;27;43455;-72
2022/10/06 09:21:52;;;;;;;1.33;1.33;;;20.10;70.50;;;;;;5087644;28;43467;-73
2022/10/06 09:24:24;;;;;;;1.20;1.20;;;20.00;70.70;;;;;;5087428;27;43668;-74
2022/10/06 09:26:51;;;;;;;1.57;1.57;;;19.90;71.20;;;;;;5087381;28;43923;-74
2022/10/06 09:29:19;;;;;;;1.20;1.20;;;19.90;71.40;;;;;;5085855;28;44699;-73
2022/10/06 09:31:49;;;;;;;1.10;1.10;;;19.90;71.20;;;;;;5087619;27;43451;-73
2022/10/06 09:34:21;;;;;;;1.10;1.10;;;19.80;71.10;;;;;;5087834;27;43813;-73
2022/10/06 09:36:59;;;;;;;1.40;1.40;;;19.80;71.40;;;;;;5086234;28;44161;-72
2022/10/06 09:39:32;;;;;;;1.43;1.40;;;19.80;71.70;;;;;;5087435;27;43372;-72
2022/10/06 09:42:05;;;;;;;1.20;1.20;;;19.80;71.90;;;;;;5087115;27;43556;-74
2022/10/06 09:44:41;;;;;;;1.70;1.60;;;19.80;71.70;;;;;;5085896;28;44198;-72
2022/10/06 09:47:35;;;;;;;1.50;1.50;;;19.80;71.80;;;;;;5087135;28;43912;-73
2022/10/06 09:50:20;;;;;;;1.20;1.20;;;19.70;71.80;;;;;;5087095;27;43974;-73
2022/10/06 09:53:10;;;;;;;1.23;1.23;;;19.70;72.10;;;;;;5085008;27;43944;-73
2022/10/06 09:55:53;;;;;;;1.20;1.20;;;19.80;72.10;;;;;;5087259;28;43376;-72
2022/10/06 09:58:31;;;;;;;1.20;1.20;;;19.90;71.80;;;;;;5083240;28;43594;-73
2022/10/06 10:01:00;;;;;;;1.63;1.63;;;19.90;71.30;;;;;;5086955;27;43508;-73
2022/10/06 10:03:41;;;;;;;1.23;1.23;;;20.00;71.30;;;;;;5087238;27;44086;-73
2022/10/06 10:06:31;;;;;;;1.30;1.30;;;20.00;71.30;;;;;;5086005;28;44109;-72
2022/10/06 10:09:21;;;;;;;1.30;1.30;;;19.90;71.50;;;;;;5086341;28;44884;-72
2022/10/06 10:14:46;;;;;;;1.30;1.30;;;19.90;71.40;;;;;;5086788;28;43432;-73
2022/10/06 10:17:17;;;;;;;1.03;1.03;;;19.90;71.60;;;;;;5086644;27;44007;-71
2022/10/06 10:19:51;;;;;;;1.40;1.40;;;19.80;71.60;;;;;;5080240;28;43905;-72
2022/10/06 10:22:23;;;;;;;1.20;1.20;;;19.80;72.00;;;;;;5085741;27;43438;-73
2022/10/06 10:24:59;;;;;;;1.27;1.27;;;19.80;71.90;;;;;;5086829;28;43454;-73
2022/10/06 10:27:29;;;;;;;1.47;1.47;;;19.80;71.90;;;;;;5086534;27;43384;-73
2022/10/06 10:30:00;;;;;;;1.20;1.20;;;19.80;72.00;;;;;;5086589;27;44077;-72
2022/10/06 10:32:45;;;;;;;1.30;1.30;;;19.80;72.00;;;;;;5086571;28;44054;-72
2022/10/06 10:35:16;;;;;;;1.47;1.40;;;19.80;72.20;;;;;;5086650;27;43379;-73
2022/10/06 10:37:50;;;;;;;1.23;1.23;;;19.80;72.10;;;;;;5119214;27;43524;-73
2022/10/06 10:40:37;;;;;;;1.60;1.50;;;19.90;71.70;;;;;;5086048;27;43704;-72
2022/10/06 10:43:18;;;;;;;1.23;1.23;;;20.10;71.20;;;;;;5085866;27;43494;-72
2022/10/06 10:45:47;;;;;;;1.30;1.30;;;20.20;70.80;;;;;;5086621;28;43430;-72
2022/10/06 10:48:17;;;;;;;1.10;1.10;;;20.20;70.60;;;;;;5085331;27;43493;-73
2022/10/06 10:50:54;;;;;;;1.13;1.13;;;20.20;70.80;;;;;;5086143;27;43934;-72
2022/10/06 10:53:27;;;;;;;1.13;1.13;;;20.10;71.00;;;;;;5084667;28;44472;-73
2022/10/06 10:55:55;;;;;;;1.57;1.47;;;20.00;71.30;;;;;;5080777;28;44020;-72
2022/10/06 10:58:26;;;;;;;1.27;1.27;;;20.00;71.50;;;;;;5084405;28;43431;-73
2022/10/06 11:00:55;;;;;;;1.30;1.30;;;20.00;71.60;;;;;;5086012;27;43635;-74
2022/10/06 11:03:23;;;;;;;1.17;1.17;;;20.00;71.70;;;;;;5084716;28;44311;-73
2022/10/06 11:06:15;;;;;;;1.20;1.20;;;19.90;71.70;;;;;;5086271;28;43468;-73
2022/10/06 11:08:48;;;;;;;1.33;1.33;;;19.90;71.80;;;;;;5083820;28;43421;-72
2022/10/06 11:11:18;;;;;;;1.27;1.27;;;19.90;72.00;;;;;;5117561;27;45342;-73
2022/10/06 11:13:47;;;;;;;1.30;1.30;;;19.90;72.00;;;;;;5086066;27;43517;-72
2022/10/06 11:16:20;;;;;;;1.27;1.27;;;19.90;72.10;;;;;;5086190;27;43840;-73
2022/10/06 11:19:01;;;;;;;1.40;1.33;;;19.80;72.00;;;;;;5085334;27;43576;-73
2022/10/06 11:21:31;;;;;;;1.20;1.20;;;19.80;72.00;;;;;;5084237;28;45911;-73
2022/10/06 11:24:02;;;;;;;1.30;1.30;;;19.80;72.10;;;;;;5085806;27;43347;-72
2022/10/06 11:26:55;;;;;;;1.20;1.20;;;19.80;72.20;;;;;;5079306;28;44258;-72
2022/10/06 11:29:28;;;;;;;1.10;1.10;;;20.00;71.90;;;;;;5085532;28;43509;-72
2022/10/06 11:32:01;;;;;;;1.20;1.20;;;20.00;71.40;;;;;;5088984;27;44022;-72
2022/10/06 11:34:29;;;;;;;1.00;1.00;;;20.10;71.40;;;;;;5089029;28;43502;-72
2022/10/06 11:37:00;;;;;;;1.20;1.20;;;20.10;71.50;;;;;;5088577;28;43449;-73
2022/10/06 11:39:41;;;;;;;1.30;1.30;;;20.00;71.60;;;;;;5089964;27;43370;-72
2022/10/06 11:42:13;;;;;;;1.20;1.20;;;20.00;72.20;;;;;;5084867;28;43852;-73
2022/10/06 11:44:43;;;;;;;1.30;1.30;;;20.00;71.50;;;;;;5083667;27;43911;-73
2022/10/06 11:47:14;;;;;;;1.20;1.20;;;20.00;71.60;;;;;;5088997;28;43473;-73
2022/10/06 11:49:50;;;;;;;1.10;1.10;;;20.00;71.70;;;;;;5089150;28;44040;-73
2022/10/06 11:52:45;;;;;;;1.10;1.10;;;19.90;71.90;;;;;;5088819;27;43794;-73
2022/10/06 11:55:19;;;;;;;1.20;1.20;;;20.00;71.90;;;;;;5084062;28;43431;-73
2022/10/06 11:58:12;;;;;;;1.10;1.10;;;20.00;72.00;;;;;;5087285;28;43478;-73
2022/10/06 12:01:01;;;;;;;1.10;1.10;;;19.90;72.10;;;;;;5087675;28;43427;-74
2022/10/06 12:04:03;;;;;;;1.27;1.27;;;19.90;72.00;;;;;;5087449;28;45306;-73
2022/10/06 12:06:53;;;;;;;1.33;1.33;;;19.90;72.10;;;;;;5088438;28;43436;-73
2022/10/06 12:09:48;;;;;;;1.30;1.30;;;20.00;71.80;;;;;;5084751;28;43439;-73
2022/10/06 12:12:44;;;;;;;1.37;1.30;;;20.10;71.30;;;;;;5089227;27;43955;-72
2022/10/06 12:15:49;;;;;;;1.30;1.30;;;20.10;71.20;;;;;;5088078;28;43992;-73
2022/10/06 12:18:50;;;;;;;1.13;1.13;;;20.10;71.40;;;;;;5086270;28;43407;-73
2022/10/06 12:21:42;;;;;;;1.30;1.30;;;20.10;71.40;;;;;;5087004;28;43497;-73
2022/10/06 12:24:27;;;;;;;1.10;1.10;;;20.10;71.40;;;;;;5084989;28;44054;-73
2022/10/06 12:27:04;;;;;;;1.17;1.17;;;20.10;71.50;;;;;;5088354;28;43926;-74
2022/10/06 12:29:42;;;;;;;1.17;1.17;;;20.00;71.60;;;;;;5088191;27;43406;-73
2022/10/06 12:32:15;;;;;;;1.23;1.23;;;20.00;71.70;;;;;;5117141;27;43425;-73
2022/10/06 12:35:02;;;;;;;1.10;1.10;;;20.00;71.70;;;;;;5087687;28;43470;-73
2022/10/06 12:37:40;;;;;;;1.23;1.23;;;20.00;71.70;;;;;;5085351;28;43551;-72
2022/10/06 12:40:46;;;;;;;0.90;0.90;;;20.00;71.80;;;;;;5085195;27;43362;-73
2022/10/06 12:43:41;;;;;;;1.20;1.20;;;20.00;72.00;;;;;;5078851;27;43477;-73
2022/10/06 12:46:15;;;;;;;1.10;1.10;;;19.90;71.90;;;;;;5086896;28;43377;-73
2022/10/06 12:48:50;;;;;;;1.10;1.10;;;20.00;71.80;;;;;;5087923;27;43965;-72
2022/10/06 12:51:24;;;;;;;1.07;1.07;;;20.10;71.30;;;;;;5086414;28;43346;-73
2022/10/06 12:54:01;;;;;;;0.90;0.90;;;20.20;70.90;;;;;;5088434;27;43436;-74
2022/10/06 12:56:30;;;;;;;1.10;1.10;;;20.30;70.50;;;;;;5085200;28;43589;-75
2022/10/06 12:58:58;;;;;;;1.10;1.10;;;20.40;70.50;;;;;;5088031;27;43843;-73
2022/10/06 13:01:27;;;;;;;1.40;1.10;;;20.30;70.60;;;;;;5087498;28;44116;-72
2022/10/06 13:03:55;;;;;;;1.00;1.00;;;20.30;70.90;;;;;;5087860;27;43337;-73
2022/10/06 13:06:24;;;;;;;1.37;1.10;;;20.20;71.00;;;;;;5088215;27;43428;-73
2022/10/06 13:09:06;;;;;;;1.10;1.10;;;20.20;71.30;;;;;;5086429;28;45681;-74
2022/10/06 13:11:33;;;;;;;0.90;0.90;;;20.10;71.30;;;;;;5087700;27;43924;-72
2022/10/06 13:14:08;;;;;;;1.00;1.00;;;20.10;71.40;;;;;;5087997;27;43429;-74
2022/10/06 13:16:39;;;;;;;1.10;1.10;;;20.10;71.40;;;;;;5086401;28;43510;-72
2022/10/06 13:19:15;;;;;;;1.30;1.30;;;20.00;71.50;;;;;;5087596;27;43736;-72
2022/10/06 13:21:42;;;;;;;1.00;1.00;;;20.00;71.70;;;;;;5087467;28;43474;-73
2022/10/06 13:24:12;;;;;;;1.07;1.07;;;20.00;71.60;;;;;;5082547;28;44118;-72
2022/10/06 13:26:40;;;;;;;1.20;1.20;;;20.00;71.70;;;;;;5086418;28;43469;-73